createdAt,value
2022-10-25T00:01:48.402Z,12.30
2022-10-25T00:03:51.143Z,12.30
2022-10-25T00:05:53.812Z,12.30
2022-10-25T00:07:56.716Z,12.30
2022-10-25T00:09:59.417Z,12.20
2022-10-25T00:12:02.100Z,12.20
2022-10-25T00:14:08.170Z,12.20
2022-10-25T00:16:14.938Z,12.10
2022-10-25T00:18:17.709Z,12.10
2022-10-25T00:20:21.142Z,12.10
2022-10-25T00:22:23.839Z,12.00
2022-10-25T00:24:26.723Z,12.00
2022-10-25T00:26:29.623Z,12.00
2022-10-25T00:28:32.846Z,12.00
2022-10-25T00:30:37.020Z,12.00
2022-10-25T00:32:39.683Z,11.90
2022-10-25T00:34:42.420Z,11.90
2022-10-25T00:36:45.090Z,11.80
2022-10-25T00:38:48.207Z,11.80
2022-10-25T00:40:51.261Z,11.80
2022-10-25T00:42:53.988Z,11.80
2022-10-25T00:44:58.169Z,11.80
2022-10-25T00:47:03.061Z,11.80
2022-10-25T00:49:11.975Z,11.80
2022-10-25T00:51:14.852Z,11.80
2022-10-25T00:53:22.666Z,11.80
2022-10-25T00:55:28.259Z,11.80
2022-10-25T00:57:35.486Z,11.90
2022-10-25T00:59:39.752Z,11.90
2022-10-25T01:01:43.479Z,11.80
2022-10-25T01:03:52.099Z,11.80
2022-10-25T01:05:55.303Z,11.90
2022-10-25T01:07:58.559Z,11.80
2022-10-25T01:10:01.237Z,11.80
2022-10-25T01:12:04.520Z,11.80
2022-10-25T01:14:08.735Z,11.80
2022-10-25T01:16:19.649Z,11.80
2022-10-25T01:18:28.494Z,11.80
2022-10-25T01:21:00.936Z,11.80
2022-10-25T01:23:15.794Z,11.70
2022-10-25T01:26:04.808Z,11.70
2022-10-25T01:28:13.793Z,11.70
2022-10-25T01:30:22.011Z,11.70
2022-10-25T01:32:29.573Z,11.60
2022-10-25T01:34:38.887Z,11.60
2022-10-25T01:36:46.488Z,11.60
2022-10-25T01:38:54.372Z,11.60
2022-10-25T01:41:08.259Z,11.60
2022-10-25T01:43:15.514Z,11.50
2022-10-25T01:45:24.194Z,11.50
2022-10-25T01:47:35.366Z,11.50
2022-10-25T01:49:45.282Z,11.40
2022-10-25T01:51:48.192Z,11.40
2022-10-25T01:53:52.874Z,11.40
2022-10-25T01:55:58.857Z,11.40
2022-10-25T01:58:11.515Z,11.50
2022-10-25T02:00:17.932Z,11.50
2022-10-25T02:02:26.683Z,11.50
2022-10-25T02:04:41.010Z,11.50
2022-10-25T02:06:55.029Z,11.50
2022-10-25T02:09:03.082Z,11.50
2022-10-25T02:11:12.331Z,11.50
2022-10-25T02:13:22.819Z,11.50
2022-10-25T02:15:31.140Z,11.50
2022-10-25T02:17:36.536Z,11.50
2022-10-25T02:19:43.695Z,11.50
2022-10-25T02:21:49.743Z,11.50
2022-10-25T02:23:54.301Z,11.50
2022-10-25T02:25:58.876Z,11.40
2022-10-25T02:28:04.327Z,11.40
2022-10-25T02:30:08.460Z,11.40
2022-10-25T02:32:11.206Z,11.40
2022-10-25T02:34:13.929Z,11.30
2022-10-25T02:36:20.991Z,11.40
2022-10-25T02:38:23.872Z,11.30
2022-10-25T02:40:26.693Z,11.30
2022-10-25T02:42:29.490Z,11.30
2022-10-25T02:44:32.726Z,11.30
2022-10-25T02:46:35.966Z,11.30
2022-10-25T02:48:39.008Z,11.20
2022-10-25T02:50:41.688Z,11.20
2022-10-25T02:52:46.213Z,11.20
2022-10-25T02:54:49.104Z,11.20
2022-10-25T02:56:52.905Z,11.20
2022-10-25T02:58:58.100Z,11.20
2022-10-25T03:01:01.769Z,11.20
2022-10-25T03:03:04.626Z,11.20
2022-10-25T03:05:07.827Z,11.20
2022-10-25T03:07:10.624Z,11.20
2022-10-25T03:09:14.960Z,11.20
2022-10-25T03:11:18.164Z,11.20
2022-10-25T03:13:20.851Z,11.20
2022-10-25T03:15:23.531Z,11.20
2022-10-25T03:17:26.522Z,11.20
2022-10-25T03:19:29.222Z,11.20
2022-10-25T03:21:32.241Z,11.20
2022-10-25T03:23:35.232Z,11.20
2022-10-25T03:25:39.648Z,11.10
2022-10-25T03:27:42.315Z,11.10
2022-10-25T03:29:45.309Z,11.20
2022-10-25T03:31:48.191Z,11.20
2022-10-25T03:33:51.798Z,11.20
2022-10-25T03:35:55.710Z,11.20
2022-10-25T03:37:58.603Z,11.20
2022-10-25T03:40:01.344Z,11.20
2022-10-25T03:42:05.728Z,11.20
2022-10-25T03:44:08.419Z,11.10
2022-10-25T03:46:11.307Z,11.10
2022-10-25T03:48:14.201Z,11.10
2022-10-25T03:50:17.031Z,11.10
2022-10-25T03:52:19.707Z,11.10
2022-10-25T03:54:24.417Z,11.10
2022-10-25T03:56:29.646Z,11.10
2022-10-25T03:58:33.656Z,11.00
2022-10-25T04:00:36.377Z,11.00
2022-10-25T04:02:39.188Z,11.00
2022-10-25T04:04:42.031Z,11.00
2022-10-25T04:06:44.980Z,11.00
2022-10-25T04:08:47.667Z,11.00
2022-10-25T04:10:50.504Z,10.90
2022-10-25T04:12:54.787Z,11.00
2022-10-25T04:14:59.994Z,10.90
2022-10-25T04:17:02.670Z,10.90
2022-10-25T04:19:05.387Z,10.90
2022-10-25T04:21:08.159Z,10.90
2022-10-25T04:23:11.107Z,10.90
2022-10-25T04:25:14.078Z,11.00
2022-10-25T04:27:17.173Z,10.90
2022-10-25T04:29:19.924Z,10.90
2022-10-25T04:31:24.950Z,10.90
2022-10-25T04:33:27.679Z,10.90
2022-10-25T04:35:30.375Z,10.90
2022-10-25T04:37:33.122Z,10.90
2022-10-25T04:39:35.851Z,10.90
2022-10-25T04:41:38.566Z,10.90
2022-10-25T04:43:41.260Z,10.90
2022-10-25T04:45:43.953Z,10.90
2022-10-25T04:47:48.303Z,10.80
2022-10-25T04:49:51.243Z,10.80
2022-10-25T04:51:54.000Z,10.80
2022-10-25T04:53:57.105Z,10.80
2022-10-25T04:56:01.124Z,10.80
2022-10-25T04:58:04.255Z,10.80
2022-10-25T05:00:07.749Z,10.80
2022-10-25T05:02:11.200Z,10.80
2022-10-25T05:04:15.256Z,10.70
2022-10-25T05:06:20.591Z,10.70
2022-10-25T05:08:23.279Z,10.70
2022-10-25T05:10:26.227Z,10.70
2022-10-25T05:12:28.945Z,10.70
2022-10-25T05:14:31.631Z,10.60
2022-10-25T05:16:35.275Z,10.60
2022-10-25T05:18:37.977Z,10.60
2022-10-25T05:20:44.883Z,10.60
2022-10-25T05:22:47.899Z,10.60
2022-10-25T05:24:50.877Z,10.60
2022-10-25T05:26:53.564Z,10.60
2022-10-25T05:28:56.896Z,10.60
2022-10-25T05:31:03.053Z,10.50
2022-10-25T05:33:05.764Z,10.50
2022-10-25T05:35:08.934Z,10.50
2022-10-25T05:37:12.979Z,10.40
2022-10-25T05:39:15.715Z,10.40
2022-10-25T05:41:19.468Z,10.40
2022-10-25T05:43:22.187Z,10.40
2022-10-25T05:45:25.023Z,10.30
2022-10-25T05:47:27.706Z,10.30
2022-10-25T05:49:30.754Z,10.30
2022-10-25T05:51:36.102Z,10.30
2022-10-25T05:53:45.104Z,10.30
2022-10-25T05:55:47.977Z,10.30
2022-10-25T05:57:52.403Z,10.40
2022-10-25T05:59:55.352Z,10.40
2022-10-25T06:01:58.158Z,10.50
2022-10-25T06:04:01.515Z,10.50
2022-10-25T06:06:05.956Z,10.50
2022-10-25T06:08:08.632Z,10.60
2022-10-25T06:10:12.856Z,10.60
2022-10-25T06:12:15.548Z,10.60
2022-10-25T06:14:18.243Z,10.60
2022-10-25T06:16:22.224Z,10.50
2022-10-25T06:18:25.396Z,10.50
2022-10-25T06:20:28.447Z,10.50
2022-10-25T06:22:31.220Z,10.50
2022-10-25T06:24:33.914Z,10.50
2022-10-25T06:26:38.987Z,10.60
2022-10-25T06:28:42.406Z,10.60
2022-10-25T06:30:45.105Z,10.60
2022-10-25T06:32:47.987Z,10.60
2022-10-25T06:34:50.850Z,10.60
2022-10-25T06:36:53.761Z,10.70
2022-10-25T06:38:58.103Z,10.70
2022-10-25T06:41:05.097Z,10.80
2022-10-25T06:43:09.155Z,10.80
2022-10-25T06:45:12.054Z,10.90
2022-10-25T06:47:18.334Z,10.90
2022-10-25T06:49:21.118Z,10.90
2022-10-25T06:51:24.566Z,11.00
2022-10-25T06:53:27.270Z,11.00
2022-10-25T06:55:30.016Z,11.00
2022-10-25T06:57:32.899Z,11.10
2022-10-25T06:59:37.159Z,11.10
2022-10-25T07:01:40.004Z,11.20
2022-10-25T07:03:43.571Z,11.20
2022-10-25T07:05:46.449Z,11.20
2022-10-25T07:07:49.574Z,11.30
2022-10-25T07:09:52.358Z,11.30
2022-10-25T07:11:55.238Z,11.30
2022-10-25T07:13:58.934Z,11.30
2022-10-25T07:16:07.779Z,11.40
2022-10-25T07:18:10.454Z,11.40
2022-10-25T07:20:13.467Z,11.50
2022-10-25T07:22:16.323Z,11.50
2022-10-25T07:24:19.105Z,11.50
2022-10-25T07:26:24.122Z,11.60
2022-10-25T07:28:27.025Z,11.70
2022-10-25T07:30:29.952Z,11.70
2022-10-25T07:32:36.646Z,11.70
2022-10-25T07:34:41.364Z,11.70
2022-10-25T07:36:44.407Z,11.70
2022-10-25T07:38:47.492Z,11.70
2022-10-25T07:40:55.581Z,11.70
2022-10-25T07:42:58.369Z,11.80
2022-10-25T07:45:01.269Z,11.80
2022-10-25T07:47:03.975Z,11.80
2022-10-25T07:49:08.024Z,11.80
2022-10-25T07:51:13.305Z,11.80
2022-10-25T07:53:16.001Z,11.80
2022-10-25T07:55:18.991Z,11.80
2022-10-25T07:57:21.777Z,11.80
2022-10-25T07:59:25.096Z,11.70
2022-10-25T08:01:29.197Z,11.70
2022-10-25T08:03:32.612Z,11.70
2022-10-25T08:05:36.682Z,11.80
2022-10-25T08:07:39.419Z,11.90
2022-10-25T08:09:42.141Z,12.00
2022-10-25T08:11:44.854Z,12.20
2022-10-25T08:13:50.583Z,12.40
2022-10-25T08:15:54.766Z,12.60
2022-10-25T08:18:00.447Z,12.70
2022-10-25T08:20:03.226Z,12.90
2022-10-25T08:22:07.348Z,13.00
2022-10-25T08:24:10.530Z,13.20
2022-10-25T08:26:13.525Z,13.30
2022-10-25T08:28:16.468Z,13.30
2022-10-25T08:30:19.367Z,13.50
2022-10-25T08:32:22.116Z,13.50
2022-10-25T08:34:26.593Z,13.60
2022-10-25T08:36:31.420Z,13.60
2022-10-25T08:38:35.540Z,13.60
2022-10-25T08:40:47.192Z,13.70
2022-10-25T08:43:02.244Z,13.70
2022-10-25T08:45:13.005Z,13.80
2022-10-25T08:47:21.379Z,13.90
2022-10-25T08:49:29.325Z,13.90
2022-10-25T08:51:36.917Z,13.90
2022-10-25T08:53:45.230Z,13.90
2022-10-25T08:56:05.230Z,13.90
2022-10-25T08:58:17.909Z,13.90
2022-10-25T09:00:22.483Z,13.90
2022-10-25T09:02:33.859Z,14.00
2022-10-25T09:04:36.809Z,14.10
2022-10-25T09:06:47.494Z,14.20
2022-10-25T09:09:12.865Z,14.20
2022-10-25T09:11:29.939Z,14.30
2022-10-25T09:13:42.633Z,14.30
2022-10-25T09:15:56.347Z,14.40
2022-10-25T09:17:59.464Z,14.40
2022-10-25T09:20:07.031Z,14.50
2022-10-25T09:22:15.306Z,14.50
2022-10-25T09:24:23.823Z,14.60
2022-10-25T09:26:39.313Z,14.60
2022-10-25T09:28:52.915Z,14.70
2022-10-25T09:30:58.109Z,14.60
2022-10-25T09:33:04.378Z,14.60
2022-10-25T09:35:14.871Z,14.50
2022-10-25T09:37:21.056Z,14.50
2022-10-25T09:39:32.019Z,14.50
2022-10-25T09:41:40.660Z,14.60
2022-10-25T09:43:49.997Z,14.60
2022-10-25T09:45:57.061Z,14.70
2022-10-25T09:48:07.489Z,14.70
2022-10-25T09:50:17.316Z,14.80
2022-10-25T09:52:27.148Z,14.90
2022-10-25T09:54:39.460Z,14.90
2022-10-25T09:56:42.396Z,15.00
2022-10-25T09:58:47.631Z,15.10
2022-10-25T10:00:51.920Z,15.20
2022-10-25T10:02:55.733Z,15.30
2022-10-25T10:04:58.584Z,15.30
2022-10-25T10:07:07.071Z,15.40
2022-10-25T10:09:14.230Z,15.50
2022-10-25T10:11:20.359Z,15.50
2022-10-25T10:13:30.593Z,15.50
2022-10-25T10:15:38.742Z,15.60
2022-10-25T10:17:41.840Z,15.60
2022-10-25T10:19:44.845Z,15.60
2022-10-25T10:21:50.416Z,15.70
2022-10-25T10:23:55.402Z,15.70
2022-10-25T10:26:01.439Z,15.80
2022-10-25T10:28:05.725Z,15.90
2022-10-25T10:30:10.198Z,15.90
2022-10-25T10:32:26.568Z,15.90
2022-10-25T10:34:31.892Z,16.00
2022-10-25T10:36:36.248Z,16.00
2022-10-25T10:38:38.961Z,16.10
2022-10-25T10:40:42.037Z,16.20
2022-10-25T10:42:45.669Z,16.40
2022-10-25T10:45:19.475Z,16.50
2022-10-25T10:47:22.756Z,16.70
2022-10-25T10:49:35.844Z,16.70
2022-10-25T10:51:45.166Z,16.70
2022-10-25T10:53:48.408Z,16.60
2022-10-25T10:55:53.312Z,16.60
2022-10-25T10:57:57.929Z,16.50
2022-10-25T11:00:02.781Z,16.40
2022-10-25T11:02:27.230Z,16.30
2022-10-25T11:04:30.052Z,16.30
2022-10-25T11:06:34.410Z,16.30
2022-10-25T11:08:37.240Z,16.40
2022-10-25T11:10:40.312Z,16.50
2022-10-25T11:12:43.521Z,16.60
2022-10-25T11:14:46.316Z,16.70
2022-10-25T11:16:59.530Z,16.80
2022-10-25T11:19:40.575Z,16.90
2022-10-25T11:22:05.891Z,17.10
2022-10-25T11:24:18.638Z,17.20
2022-10-25T11:26:30.332Z,17.30
2022-10-25T11:28:45.299Z,17.30
2022-10-25T11:30:59.561Z,17.20
2022-10-25T11:33:39.466Z,17.10
2022-10-25T11:36:02.428Z,17.00
2022-10-25T11:38:12.435Z,16.90
2022-10-25T11:40:18.372Z,16.90
2022-10-25T11:42:45.571Z,16.80
2022-10-25T11:45:10.848Z,16.90
2022-10-25T11:47:24.890Z,16.90
2022-10-25T11:49:41.389Z,17.00
2022-10-25T11:51:51.475Z,17.00
2022-10-25T11:54:08.406Z,17.10
2022-10-25T11:56:20.197Z,17.10
2022-10-25T11:58:35.942Z,17.20
2022-10-25T12:00:46.269Z,17.10
2022-10-25T12:03:02.837Z,17.20
2022-10-25T12:05:22.246Z,17.20
2022-10-25T12:07:31.080Z,17.30
2022-10-25T12:09:41.120Z,17.30
2022-10-25T12:11:48.188Z,17.40
2022-10-25T12:13:54.700Z,17.30
2022-10-25T12:15:59.491Z,17.30
2022-10-25T12:18:03.356Z,17.20
2022-10-25T12:20:12.402Z,17.20
2022-10-25T12:22:21.172Z,17.00
2022-10-25T12:24:30.618Z,17.00
2022-10-25T12:26:38.366Z,16.90
2022-10-25T12:28:45.720Z,17.00
2022-10-25T12:30:49.721Z,17.00
2022-10-25T12:32:56.988Z,17.10
2022-10-25T12:35:02.265Z,17.20
2022-10-25T12:37:09.932Z,17.20
2022-10-25T12:39:17.116Z,17.30
2022-10-25T12:41:23.232Z,17.30
2022-10-25T12:43:32.975Z,17.40
2022-10-25T12:45:58.605Z,17.50
2022-10-25T12:48:14.368Z,17.60
2022-10-25T12:50:35.438Z,17.70
2022-10-25T12:52:39.736Z,17.70
2022-10-25T12:55:04.212Z,17.70
2022-10-25T12:57:17.601Z,17.80
2022-10-25T12:59:34.891Z,17.80
2022-10-25T13:01:51.176Z,17.80
2022-10-25T13:04:10.719Z,17.90
2022-10-25T13:06:32.335Z,17.90
2022-10-25T13:08:35.480Z,17.90
2022-10-25T13:10:44.756Z,18.00
2022-10-25T13:13:00.587Z,18.10
2022-10-25T13:15:04.260Z,18.10
2022-10-25T13:17:44.851Z,18.20
2022-10-25T13:19:54.554Z,18.30
2022-10-25T13:22:34.284Z,18.30
2022-10-25T13:24:42.396Z,18.30
2022-10-25T13:27:21.116Z,18.20
2022-10-25T13:29:58.656Z,18.20
2022-10-25T13:32:10.351Z,18.20
2022-10-25T13:34:32.259Z,18.30
2022-10-25T13:36:47.967Z,18.20
2022-10-25T13:39:04.947Z,18.30
2022-10-25T13:41:16.092Z,18.20
2022-10-25T13:43:21.940Z,18.10
2022-10-25T13:45:34.049Z,18.00
2022-10-25T13:47:40.454Z,18.00
2022-10-25T13:49:44.447Z,17.90
2022-10-25T13:51:48.110Z,17.80
2022-10-25T13:53:53.254Z,17.80
2022-10-25T13:56:03.815Z,17.70
2022-10-25T13:58:39.746Z,17.60
2022-10-25T14:00:48.104Z,17.60
2022-10-25T14:03:21.993Z,17.70
2022-10-25T14:05:58.147Z,17.70
2022-10-25T14:08:15.881Z,17.70
2022-10-25T14:10:28.837Z,17.70
2022-10-25T14:12:33.097Z,17.70
2022-10-25T14:14:44.384Z,17.70
2022-10-25T14:17:00.189Z,17.60
2022-10-25T14:19:07.634Z,17.60
2022-10-25T14:21:13.026Z,17.60
2022-10-25T14:23:19.303Z,17.50
2022-10-25T14:25:24.739Z,17.50
2022-10-25T14:27:31.044Z,17.40
2022-10-25T14:29:33.761Z,17.30
2022-10-25T14:31:36.557Z,17.30
2022-10-25T14:33:46.269Z,17.30
2022-10-25T14:35:50.398Z,17.30
2022-10-25T14:37:53.687Z,17.30
2022-10-25T14:39:56.583Z,17.30
2022-10-25T14:42:01.586Z,17.30
2022-10-25T14:44:20.562Z,17.30
2022-10-25T14:46:25.625Z,17.20
2022-10-25T14:48:28.723Z,17.20
2022-10-25T14:50:32.829Z,17.10
2022-10-25T14:52:37.279Z,17.10
2022-10-25T14:54:41.144Z,17.00
2022-10-25T14:56:51.333Z,17.00
2022-10-25T14:58:55.152Z,17.10
2022-10-25T15:01:01.146Z,17.20
2022-10-25T15:03:06.135Z,17.30
2022-10-25T15:05:18.415Z,17.50
2022-10-25T15:07:24.706Z,17.60
2022-10-25T15:09:42.275Z,17.70
2022-10-25T15:12:05.131Z,17.60
2022-10-25T15:14:16.736Z,17.50
2022-10-25T15:16:36.004Z,17.30
2022-10-25T15:18:39.625Z,17.10
2022-10-25T15:20:42.364Z,16.90
2022-10-25T15:22:48.699Z,16.70
2022-10-25T15:24:51.661Z,16.60
2022-10-25T15:26:59.565Z,16.40
2022-10-25T15:29:02.904Z,16.30
2022-10-25T15:31:07.192Z,16.30
2022-10-25T15:33:12.856Z,16.20
2022-10-25T15:35:22.964Z,16.20
2022-10-25T15:37:26.990Z,16.20
2022-10-25T15:39:32.554Z,16.20
2022-10-25T15:41:36.515Z,16.20
2022-10-25T15:43:39.239Z,16.20
2022-10-25T15:45:42.454Z,16.10
2022-10-25T15:47:47.236Z,16.10
2022-10-25T15:49:53.183Z,16.00
2022-10-25T15:51:56.223Z,16.00
2022-10-25T15:53:58.991Z,15.90
2022-10-25T15:56:03.976Z,15.90
2022-10-25T15:58:09.786Z,15.80
2022-10-25T16:00:15.807Z,15.70
2022-10-25T16:02:21.828Z,15.60
2022-10-25T16:04:24.613Z,15.50
2022-10-25T16:06:27.439Z,15.40
2022-10-25T16:08:31.172Z,15.30
2022-10-25T16:10:34.274Z,15.30
2022-10-25T16:12:39.092Z,15.20
2022-10-25T16:14:41.877Z,15.10
2022-10-25T16:16:44.927Z,15.00
2022-10-25T16:18:47.798Z,14.90
2022-10-25T16:20:50.849Z,14.90
2022-10-25T16:22:54.566Z,14.80
2022-10-25T16:24:57.352Z,14.80
2022-10-25T16:27:00.755Z,14.80
2022-10-25T16:29:05.509Z,14.80
2022-10-25T16:31:08.351Z,14.70
2022-10-25T16:33:11.031Z,14.70
2022-10-25T16:35:15.762Z,14.60
2022-10-25T16:37:19.128Z,14.50
2022-10-25T16:39:21.972Z,14.40
2022-10-25T16:41:26.601Z,14.30
2022-10-25T16:43:29.419Z,14.30
2022-10-25T16:45:36.857Z,14.20
2022-10-25T16:47:39.568Z,14.20
2022-10-25T16:49:42.627Z,14.10
2022-10-25T16:51:45.703Z,14.00
2022-10-25T16:53:49.626Z,13.90
2022-10-25T16:55:52.406Z,13.80
2022-10-25T16:57:55.163Z,13.70
2022-10-25T16:59:58.217Z,13.60
2022-10-25T17:02:02.777Z,13.50
2022-10-25T17:04:06.290Z,13.40
2022-10-25T17:06:22.172Z,13.30
2022-10-25T17:08:31.704Z,13.30
2022-10-25T17:10:34.646Z,13.20
2022-10-25T17:12:43.704Z,13.10
2022-10-25T17:14:46.457Z,13.00
2022-10-25T17:16:49.141Z,13.00
2022-10-25T17:18:53.273Z,12.90
2022-10-25T17:20:56.036Z,12.80
2022-10-25T17:22:58.767Z,12.70
2022-10-25T17:25:01.550Z,12.70
2022-10-25T17:29:08.587Z,12.60
2022-10-25T17:31:12.955Z,12.50
2022-10-25T17:33:15.736Z,12.50
2022-10-25T17:35:25.817Z,12.40
2022-10-25T17:37:32.302Z,12.30
2022-10-25T17:39:35.210Z,12.30
2022-10-25T17:41:38.202Z,12.30
2022-10-25T17:43:42.420Z,12.20
2022-10-25T17:45:45.587Z,12.20
2022-10-25T17:47:48.774Z,12.10
2022-10-25T17:49:53.354Z,12.10
2022-10-25T17:51:57.408Z,12.10
2022-10-25T17:54:00.449Z,12.10
2022-10-25T17:56:12.256Z,12.10
2022-10-25T17:58:14.943Z,12.10
2022-10-25T18:00:17.765Z,12.00
2022-10-25T18:02:20.518Z,12.00
2022-10-25T18:04:23.714Z,11.90
2022-10-25T18:06:27.028Z,11.90
2022-10-25T18:08:31.134Z,11.80
2022-10-25T18:10:34.800Z,11.80
2022-10-25T18:12:37.475Z,11.80
2022-10-25T18:14:40.184Z,11.70
2022-10-25T18:16:42.883Z,11.70
2022-10-25T18:18:45.591Z,11.70
2022-10-25T18:20:51.435Z,11.60
2022-10-25T18:22:55.348Z,11.60
2022-10-25T18:24:59.672Z,11.60
2022-10-25T18:27:02.372Z,11.50
2022-10-25T18:29:05.127Z,11.50
2022-10-25T18:31:10.588Z,11.40
2022-10-25T18:33:14.917Z,11.40
2022-10-25T18:35:17.829Z,11.30
2022-10-25T18:37:20.711Z,11.20
2022-10-25T18:39:23.488Z,11.20
2022-10-25T18:41:30.297Z,11.20
2022-10-25T18:43:33.187Z,11.20
2022-10-25T18:45:36.644Z,11.20
2022-10-25T18:47:40.694Z,11.20
2022-10-25T18:49:43.351Z,11.10
2022-10-25T18:51:50.301Z,11.10
2022-10-25T18:53:54.468Z,11.10
2022-10-25T18:55:57.159Z,11.00
2022-10-25T18:58:02.184Z,11.00
2022-10-25T19:00:05.751Z,10.90
2022-10-25T19:02:08.895Z,10.90
2022-10-25T19:04:12.912Z,10.90
2022-10-25T19:06:15.845Z,10.80
2022-10-25T19:08:18.816Z,10.80
2022-10-25T19:10:22.791Z,10.70
2022-10-25T19:12:25.468Z,10.70
2022-10-25T19:14:29.472Z,10.70
2022-10-25T19:16:32.314Z,10.70
2022-10-25T19:18:36.303Z,10.70
2022-10-25T19:20:41.830Z,10.70
2022-10-25T19:22:46.935Z,10.70
2022-10-25T19:24:49.911Z,10.60
2022-10-25T19:26:53.091Z,10.50
2022-10-25T19:28:57.619Z,10.50
2022-10-25T19:31:07.128Z,10.50
2022-10-25T19:33:09.913Z,10.40
2022-10-25T19:35:12.823Z,10.40
2022-10-25T19:37:15.504Z,10.40
2022-10-25T19:39:18.411Z,10.40
2022-10-25T19:41:23.924Z,10.40
2022-10-25T19:43:26.687Z,10.40
2022-10-25T19:45:29.382Z,10.40
2022-10-25T19:47:34.709Z,10.40
2022-10-25T19:49:37.610Z,10.40
2022-10-25T19:51:40.547Z,10.30
2022-10-25T19:53:44.219Z,10.30
2022-10-25T19:55:47.340Z,10.30
2022-10-25T19:57:50.457Z,10.40
2022-10-25T19:59:53.680Z,10.40
2022-10-25T20:01:56.440Z,10.40
2022-10-25T20:04:01.139Z,10.40
2022-10-25T20:06:07.107Z,10.40
2022-10-25T20:08:09.902Z,10.40
2022-10-25T20:10:12.932Z,10.30
2022-10-25T20:12:15.700Z,10.30
2022-10-25T20:14:18.468Z,10.30
2022-10-25T20:16:21.308Z,10.20
2022-10-25T20:18:25.260Z,10.20
2022-10-25T20:20:29.343Z,10.10
2022-10-25T20:22:34.017Z,10.10
2022-10-25T20:24:36.790Z,10.10
2022-10-25T20:26:41.618Z,10.10
2022-10-25T20:28:45.477Z,10.00
2022-10-25T20:30:48.315Z,10.00
2022-10-25T20:32:51.171Z,10.00
2022-10-25T20:34:53.908Z,10.00
2022-10-25T20:36:57.992Z,10.00
2022-10-25T20:39:00.719Z,9.90
2022-10-25T20:41:04.904Z,9.90
2022-10-25T20:43:07.999Z,9.80
2022-10-25T20:45:10.813Z,9.80
2022-10-25T20:47:13.549Z,9.70
2022-10-25T20:49:16.441Z,9.80
2022-10-25T20:51:19.544Z,9.80
2022-10-25T20:53:23.884Z,9.70
2022-10-25T20:55:27.269Z,9.70
2022-10-25T20:57:29.975Z,9.70
2022-10-25T20:59:33.654Z,9.70
2022-10-25T21:01:36.977Z,9.70
2022-10-25T21:03:40.290Z,9.70
2022-10-25T21:05:44.895Z,9.70
2022-10-25T21:07:47.988Z,9.60
2022-10-25T21:09:52.254Z,9.60
2022-10-25T21:11:55.525Z,9.60
2022-10-25T21:13:58.694Z,9.50
2022-10-25T21:16:06.132Z,9.50
2022-10-25T21:18:08.907Z,9.50
2022-10-25T21:20:12.306Z,9.40
2022-10-25T21:22:14.979Z,9.40
2022-10-25T21:24:17.664Z,9.40
2022-10-25T21:26:21.728Z,9.40
2022-10-25T21:28:24.396Z,9.40
2022-10-25T21:30:27.497Z,9.40
2022-10-25T21:32:30.634Z,9.40
2022-10-25T21:34:33.560Z,9.40
2022-10-25T21:36:36.515Z,9.40
2022-10-25T21:38:39.935Z,9.30
2022-10-25T21:40:42.829Z,9.40
2022-10-25T21:42:46.872Z,9.30
2022-10-25T21:44:49.667Z,9.30
2022-10-25T21:46:52.312Z,9.40
2022-10-25T21:48:55.787Z,9.40
2022-10-25T21:50:59.097Z,9.40
2022-10-25T21:53:01.852Z,9.40
2022-10-25T21:55:05.512Z,9.40
2022-10-25T21:57:08.260Z,9.40
2022-10-25T21:59:12.327Z,9.40
2022-10-25T22:01:16.874Z,9.40
2022-10-25T22:03:22.016Z,9.40
2022-10-25T22:05:26.982Z,9.40
2022-10-25T22:07:29.989Z,9.40
2022-10-25T22:09:32.930Z,9.40
2022-10-25T22:11:37.503Z,9.40
2022-10-25T22:13:40.530Z,9.40
2022-10-25T22:15:44.596Z,9.40
2022-10-25T22:17:47.363Z,9.40
2022-10-25T22:19:50.145Z,9.40
2022-10-25T22:21:53.122Z,9.40
2022-10-25T22:23:55.799Z,9.40
2022-10-25T22:26:00.947Z,9.40
2022-10-25T22:28:03.725Z,9.40
2022-10-25T22:30:07.593Z,9.40
2022-10-25T22:32:14.252Z,9.40
2022-10-25T22:34:16.960Z,9.40
2022-10-25T22:36:21.140Z,9.40
2022-10-25T22:38:23.817Z,9.30
2022-10-25T22:40:26.544Z,9.30
2022-10-25T22:42:29.257Z,9.30
2022-10-25T22:44:31.996Z,9.30
2022-10-25T22:46:36.544Z,9.30
2022-10-25T22:48:42.959Z,9.30
2022-10-25T22:50:49.758Z,9.30
2022-10-25T22:52:53.560Z,9.30
2022-10-25T22:54:56.406Z,9.20
2022-10-25T22:56:59.097Z,9.20
2022-10-25T22:59:04.507Z,9.30
2022-10-25T23:01:11.064Z,9.30
2022-10-25T23:03:13.882Z,9.30
2022-10-25T23:05:18.080Z,9.30
2022-10-25T23:07:20.815Z,9.30
2022-10-25T23:09:23.570Z,9.30
2022-10-25T23:11:28.223Z,9.30
2022-10-25T23:13:32.220Z,9.30
2022-10-25T23:15:34.879Z,9.30
2022-10-25T23:17:37.653Z,9.30
2022-10-25T23:19:40.418Z,9.40
2022-10-25T23:21:44.474Z,9.40
2022-10-25T23:23:47.907Z,9.40
2022-10-25T23:25:51.202Z,9.30
2022-10-25T23:27:53.864Z,9.30
2022-10-25T23:29:56.608Z,9.30
2022-10-25T23:31:59.319Z,9.30
2022-10-25T23:34:02.377Z,9.20
2022-10-25T23:36:08.542Z,9.20
2022-10-25T23:38:13.931Z,9.10
2022-10-25T23:40:17.267Z,9.10
2022-10-25T23:42:20.456Z,9.10
2022-10-25T23:44:23.641Z,9.10
2022-10-25T23:46:26.423Z,9.10
2022-10-25T23:48:29.230Z,9.10
2022-10-25T23:50:31.888Z,9.10
2022-10-25T23:52:35.031Z,9.00
2022-10-25T23:54:39.352Z,9.00
2022-10-25T23:56:42.556Z,9.00
2022-10-25T23:58:45.244Z,9.00
